Time;durP1;ratioP1;P1;durP2;ratioP2;P2;SDS_P1;SDS_P2;PMS_P1;PMS_P2;Temp;Humidity;BMP_temperature;BMP_pressure;BME280_temperature;BME280_humidity;BME280_pressure;Samples;Min_cycle;Max_cycle;Signal;HPM_P1;HPM_P2
2022/11/04 00:01:45;;;;;;;11.90;4.10;;;5.10;99.90;;;;;;4957875;28;20042;-91
2022/11/04 00:04:12;;;;;;;9.00;3.63;;;5.00;99.90;;;;;;4966726;28;20074;-90
2022/11/04 00:06:39;;;;;;;21.70;5.13;;;4.90;99.90;;;;;;4977411;28;20038;-91
2022/11/04 00:09:07;;;;;;;13.88;4.20;;;5.00;99.90;;;;;;4977358;28;20023;-92
2022/11/04 00:14:18;;;;;;;9.98;4.53;;;4.90;99.90;;;;;;4996963;28;20040;-90
2022/11/04 00:28:41;;;;;;;31.38;7.57;;;4.90;99.90;;;;;;5000216;28;20075;-91
2022/11/04 00:30:28;;;;;;;17.00;5.05;;;4.90;99.90;;;;;;4958991;28;20093;-91
2022/11/04 00:35:37;;;;;;;21.10;5.38;;;4.90;99.90;;;;;;5002218;28;20061;-91
2022/11/04 00:38:03;;;;;;;24.45;5.63;;;4.90;99.90;;;;;;4984191;28;20030;-91
2022/11/04 00:40:29;;;;;;;24.27;5.93;;;4.90;99.90;;;;;;4983609;28;20033;-90
2022/11/04 00:42:54;;;;;;;12.70;4.72;;;4.90;99.90;;;;;;4982854;28;20041;-90
2022/11/04 00:45:20;;;;;;;13.52;4.75;;;4.90;99.90;;;;;;4977425;28;20037;-91
2022/11/04 00:47:45;;;;;;;18.98;4.85;;;4.80;99.90;;;;;;4977425;28;20111;-90
2022/11/04 00:50:11;;;;;;;13.85;5.05;;;4.80;99.90;;;;;;4977939;28;20379;-90
2022/11/04 00:52:37;;;;;;;17.15;5.53;;;4.80;99.90;;;;;;4977740;28;20065;-90
2022/11/04 00:55:03;;;;;;;13.18;4.63;;;4.70;99.90;;;;;;4978092;28;20129;-91
2022/11/04 00:57:29;;;;;;;11.77;4.15;;;4.60;99.90;;;;;;4977142;28;20022;-91
2022/11/04 00:59:55;;;;;;;14.63;4.95;;;4.60;99.90;;;;;;4976850;28;20022;-91
2022/11/04 01:02:20;;;;;;;16.85;5.00;;;4.60;99.90;;;;;;4976783;28;20125;-90
2022/11/04 01:04:46;;;;;;;14.30;5.30;;;4.50;99.90;;;;;;4976956;28;20054;-91
2022/11/04 01:07:12;;;;;;;21.35;5.10;;;4.50;99.90;;;;;;4976864;28;20026;-91
2022/11/04 01:09:38;;;;;;;13.70;5.05;;;4.40;99.90;;;;;;4976949;28;20038;-91
2022/11/04 01:12:04;;;;;;;13.95;4.63;;;4.40;99.90;;;;;;4976837;28;20038;-90
2022/11/04 01:14:29;;;;;;;19.38;4.63;;;4.30;99.90;;;;;;4977099;28;20026;-90
2022/11/04 01:16:55;;;;;;;20.63;5.10;;;4.30;99.90;;;;;;4983120;28;20042;-91
2022/11/04 01:19:21;;;;;;;14.85;5.20;;;4.30;99.90;;;;;;4978024;28;20037;-90
2022/11/04 01:21:50;;;;;;;19.27;5.38;;;4.30;99.90;;;;;;4976543;28;20030;-90
2022/11/04 01:24:16;;;;;;;13.82;5.05;;;4.20;99.90;;;;;;4976896;28;20027;-91
2022/11/04 01:26:42;;;;;;;14.65;4.85;;;4.20;99.90;;;;;;4976759;28;20033;-91
2022/11/04 01:29:07;;;;;;;15.90;5.32;;;4.20;99.90;;;;;;4976834;28;20037;-90
2022/11/04 01:31:33;;;;;;;22.27;6.22;;;4.20;99.90;;;;;;4976769;28;20117;-91
2022/11/04 01:33:59;;;;;;;16.42;5.57;;;4.10;99.90;;;;;;4976578;28;20089;-90
2022/11/04 01:36:26;;;;;;;17.92;5.95;;;4.10;99.90;;;;;;4976728;28;20053;-91
2022/11/04 01:38:54;;;;;;;15.45;4.90;;;4.10;99.90;;;;;;4975737;28;20077;-91
2022/11/04 01:41:31;;;;;;;15.60;5.55;;;4.10;99.90;;;;;;4977338;28;20065;-90
2022/11/04 01:44:02;;;;;;;16.58;6.13;;;4.20;99.90;;;;;;4977013;28;20053;-90
2022/11/04 01:46:45;;;;;;;18.00;5.47;;;4.20;99.90;;;;;;4976496;28;20023;-90
2022/11/04 01:49:28;;;;;;;17.42;5.65;;;4.20;99.90;;;;;;4976631;28;20046;-89
2022/11/04 01:52:05;;;;;;;27.83;6.38;;;4.20;99.90;;;;;;4976793;28;20030;-90
2022/11/04 01:54:32;;;;;;;22.88;5.97;;;4.20;99.90;;;;;;4976449;28;20087;-90
2022/11/04 01:57:00;;;;;;;13.90;5.68;;;4.20;99.90;;;;;;4976409;28;20122;-90
2022/11/04 01:59:34;;;;;;;19.17;5.70;;;4.20;99.90;;;;;;4976239;28;20018;-90
2022/11/04 02:01:59;;;;;;;19.45;6.07;;;4.20;99.90;;;;;;4976067;28;20038;-89
2022/11/04 02:04:26;;;;;;;13.93;5.20;;;4.10;99.90;;;;;;4976135;28;20042;-91
2022/11/04 02:06:59;;;;;;;23.50;5.32;;;4.10;99.90;;;;;;4976160;28;20510;-90
2022/11/04 02:09:27;;;;;;;23.15;6.82;;;4.10;99.90;;;;;;4976102;28;20117;-90
2022/11/04 02:14:39;;;;;;;23.17;6.63;;;4.00;99.90;;;;;;4997334;28;20112;-90
2022/11/04 02:17:32;;;;;;;17.65;5.20;;;4.00;99.90;;;;;;4979938;28;20089;-90
2022/11/04 02:20:19;;;;;;;14.10;6.07;;;4.00;99.90;;;;;;4972719;28;20037;-90
2022/11/04 02:23:22;;;;;;;17.35;5.47;;;4.00;99.90;;;;;;4979318;28;20050;-91
2022/11/04 02:25:51;;;;;;;26.30;6.45;;;4.10;99.90;;;;;;4979562;28;20534;-90
2022/11/04 02:28:41;;;;;;;21.40;5.97;;;4.10;99.90;;;;;;4979830;28;20253;-91
2022/11/04 02:31:25;;;;;;;19.98;6.00;;;4.10;99.90;;;;;;4979784;28;20031;-91
2022/11/04 02:34:10;;;;;;;14.48;5.75;;;4.10;99.90;;;;;;4980194;28;20030;-90
2022/11/04 02:36:39;;;;;;;19.58;5.85;;;4.00;99.90;;;;;;4980150;28;20045;-90
2022/11/04 02:39:38;;;;;;;16.83;5.93;;;4.00;99.90;;;;;;4979767;28;20030;-90
2022/11/04 02:42:21;;;;;;;13.63;5.68;;;4.00;99.90;;;;;;4937072;29;20044;-90
2022/11/04 02:45:00;;;;;;;21.17;6.07;;;3.90;99.90;;;;;;4925217;29;20031;-91
2022/11/04 02:47:28;;;;;;;17.27;5.45;;;3.80;99.90;;;;;;4927834;29;20067;-90
2022/11/04 02:50:01;;;;;;;16.05;5.88;;;3.80;99.90;;;;;;4921522;29;20027;-90
2022/11/04 02:52:43;;;;;;;17.42;5.60;;;3.80;99.90;;;;;;4921140;29;20058;-91
2022/11/04 02:55:16;;;;;;;14.48;5.38;;;3.80;99.90;;;;;;4921422;29;20062;-90
2022/11/04 02:57:43;;;;;;;14.10;5.50;;;3.70;99.90;;;;;;4937117;29;20489;-90
2022/11/04 03:00:12;;;;;;;19.15;6.35;;;3.70;99.90;;;;;;4920863;29;20534;-91
2022/11/04 03:02:45;;;;;;;15.38;5.90;;;3.70;99.90;;;;;;4920810;29;20051;-90
2022/11/04 03:05:18;;;;;;;15.27;5.45;;;3.70;99.90;;;;;;4932245;29;20047;-90
2022/11/04 03:07:46;;;;;;;15.68;5.88;;;3.70;99.90;;;;;;4920870;29;20502;-90
2022/11/04 03:10:20;;;;;;;18.10;5.80;;;3.70;99.90;;;;;;4920892;29;20038;-90
2022/11/04 03:13:09;;;;;;;18.48;5.78;;;3.70;99.90;;;;;;4920871;29;20180;-91
2022/11/04 03:15:39;;;;;;;18.88;6.10;;;3.70;99.90;;;;;;4919954;29;20055;-91
2022/11/04 03:18:22;;;;;;;20.48;6.13;;;3.70;99.90;;;;;;4942584;28;20033;-91
2022/11/04 03:20:50;;;;;;;13.57;6.43;;;3.70;99.90;;;;;;4979394;28;20034;-91
2022/11/04 03:23:16;;;;;;;21.02;8.05;;;3.60;99.90;;;;;;4978995;28;20034;-90
2022/11/04 03:25:50;;;;;;;18.13;6.20;;;3.50;99.90;;;;;;4978780;28;20085;-90
2022/11/04 03:28:40;;;;;;;20.23;6.38;;;3.40;99.90;;;;;;4978884;28;20030;-92
2022/11/04 03:31:12;;;;;;;14.38;4.93;;;3.40;99.90;;;;;;4978701;28;20038;-90
2022/11/04 03:33:52;;;;;;;15.55;5.40;;;3.40;99.90;;;;;;4978169;28;20037;-91
2022/11/04 03:36:20;;;;;;;13.85;5.57;;;3.40;99.90;;;;;;4978625;28;20033;-91
2022/11/04 03:38:46;;;;;;;21.70;5.38;;;3.50;99.90;;;;;;4978827;28;20109;-90
2022/11/04 03:41:30;;;;;;;17.08;5.65;;;3.50;99.90;;;;;;4978706;28;20050;-91
2022/11/04 03:43:56;;;;;;;12.85;4.50;;;3.50;99.90;;;;;;4978592;28;20038;-91
2022/11/04 03:46:22;;;;;;;14.75;4.75;;;3.60;99.90;;;;;;4978917;28;20034;-91
2022/11/04 03:48:51;;;;;;;23.55;5.90;;;3.60;99.90;;;;;;4978771;28;20030;-91
2022/11/04 03:51:17;;;;;;;13.15;4.78;;;3.50;99.90;;;;;;4979116;28;20033;-90
2022/11/04 03:53:43;;;;;;;16.42;5.88;;;3.50;99.90;;;;;;4980025;28;20113;-91
2022/11/04 03:56:24;;;;;;;16.92;5.03;;;3.40;99.90;;;;;;4978775;28;20023;-91
2022/11/04 03:58:49;;;;;;;;;;;3.40;99.90;;;;;;4978815;28;20380;-90
2022/11/04 04:01:24;;;;;;;15.10;4.72;;;3.30;99.90;;;;;;4978033;28;19906;-90
2022/11/04 04:04:27;;;;;;;18.50;5.63;;;3.30;99.90;;;;;;4977906;28;20050;-90
2022/11/04 04:07:03;;;;;;;15.93;4.70;;;3.30;99.90;;;;;;4978319;28;20034;-90
2022/11/04 04:09:40;;;;;;;16.65;6.05;;;3.20;99.90;;;;;;4978446;28;20081;-90
2022/11/04 04:12:50;;;;;;;21.13;4.97;;;3.20;99.90;;;;;;4977969;28;20030;-90
2022/11/04 04:15:22;;;;;;;12.63;3.72;;;3.20;99.90;;;;;;4991173;28;20038;-90
2022/11/04 04:18:02;;;;;;;9.75;4.22;;;3.10;99.90;;;;;;4977756;28;20033;-91
2022/11/04 04:20:30;;;;;;;12.25;4.68;;;3.20;99.90;;;;;;4978124;28;20511;-90
2022/11/04 04:23:03;;;;;;;12.88;5.22;;;3.20;99.90;;;;;;4976921;28;20046;-91
2022/11/04 04:28:17;;;;;;;20.33;4.93;;;3.10;99.90;;;;;;4995986;28;20090;-91
2022/11/04 04:30:43;;;;;;;17.33;4.93;;;3.10;99.90;;;;;;4978214;28;20109;-91
2022/11/04 04:33:19;;;;;;;12.82;5.00;;;3.10;99.90;;;;;;4979054;28;20055;-91
2022/11/04 04:35:55;;;;;;;13.40;5.22;;;3.00;99.90;;;;;;4978575;28;20046;-90
2022/11/04 04:47:32;;;;;;;14.98;4.55;;;2.80;99.90;;;;;;4996052;28;20600;-90
2022/11/04 04:49:59;;;;;;;10.82;4.45;;;2.70;99.90;;;;;;4978235;28;20041;-91
2022/11/04 04:52:28;;;;;;;11.18;4.30;;;2.70;99.90;;;;;;4977895;28;20026;-91
2022/11/04 04:54:53;;;;;;;15.63;4.50;;;2.80;99.90;;;;;;4978138;28;20034;-91
2022/11/04 04:57:19;;;;;;;14.93;4.45;;;2.80;99.90;;;;;;4978608;28;20026;-91
2022/11/04 04:59:45;;;;;;;20.73;4.82;;;2.80;99.90;;;;;;4978353;28;20031;-91
2022/11/04 05:02:10;;;;;;;14.40;4.72;;;2.80;99.90;;;;;;4979805;28;20543;-90
2022/11/04 05:04:36;;;;;;;11.55;5.30;;;2.80;99.90;;;;;;4980000;28;20050;-90
2022/11/04 05:07:02;;;;;;;15.82;5.55;;;2.70;99.90;;;;;;4979407;28;20042;-91
2022/11/04 05:09:27;;;;;;;17.23;5.32;;;2.60;99.90;;;;;;4977942;28;20030;-90
2022/11/04 05:11:53;;;;;;;15.80;5.78;;;2.60;99.90;;;;;;4977795;28;20034;-91
2022/11/04 05:14:19;;;;;;;15.50;6.28;;;2.60;99.90;;;;;;4977109;28;20118;-90
2022/11/04 05:16:44;;;;;;;16.58;5.15;;;2.60;99.90;;;;;;4977466;28;20092;-90
2022/11/04 05:19:10;;;;;;;15.10;4.93;;;2.60;99.90;;;;;;4977891;28;20023;-90
2022/11/04 05:21:36;;;;;;;18.35;6.13;;;2.60;99.90;;;;;;4977111;28;20061;-90
2022/11/04 05:24:01;;;;;;;11.80;4.25;;;2.60;99.90;;;;;;4977757;28;20036;-92
2022/11/04 05:26:27;;;;;;;13.48;5.32;;;2.60;99.90;;;;;;4978128;28;20432;-90
2022/11/04 05:28:53;;;;;;;17.50;4.70;;;2.70;99.90;;;;;;4977886;28;20041;-91
2022/11/04 05:31:18;;;;;;;14.82;4.90;;;2.70;99.90;;;;;;4978217;28;20169;-91
2022/11/04 05:33:44;;;;;;;15.25;4.63;;;2.60;99.90;;;;;;4979272;28;20050;-90
2022/11/04 05:36:12;;;;;;;12.85;4.70;;;2.50;99.90;;;;;;4979594;28;20030;-91
2022/11/04 05:38:39;;;;;;;16.58;5.38;;;2.50;99.90;;;;;;4979444;28;20046;-91
2022/11/04 05:41:06;;;;;;;13.73;5.05;;;2.50;99.90;;;;;;4980237;28;20097;-91
2022/11/04 05:43:32;;;;;;;13.45;4.78;;;2.50;99.90;;;;;;4981643;28;20117;-90
2022/11/04 05:45:59;;;;;;;16.55;5.00;;;2.50;99.90;;;;;;4984204;28;20046;-91
2022/11/04 05:48:25;;;;;;;11.50;4.40;;;2.50;99.90;;;;;;4988484;28;20026;-90
2022/11/04 05:50:51;;;;;;;11.63;4.88;;;2.50;99.90;;;;;;4988265;28;20069;-92
2022/11/04 05:53:17;;;;;;;13.15;4.90;;;2.50;99.90;;;;;;4988252;28;20057;-91
2022/11/04 05:55:43;;;;;;;14.38;4.50;;;2.60;99.90;;;;;;5002221;28;20014;-91
2022/11/04 05:58:08;;;;;;;14.07;4.25;;;2.60;99.90;;;;;;5003223;28;20033;-91
2022/11/04 06:00:34;;;;;;;11.00;3.75;;;2.60;99.90;;;;;;5003162;28;20010;-92
2022/11/04 06:03:00;;;;;;;12.27;4.20;;;2.60;99.90;;;;;;5001670;28;20196;-91
2022/11/04 06:05:26;;;;;;;12.68;4.13;;;2.60;99.90;;;;;;4973321;28;20050;-91
2022/11/04 06:07:53;;;;;;;13.63;4.30;;;2.50;99.90;;;;;;4963586;28;20067;-91
2022/11/04 06:10:20;;;;;;;13.18;3.65;;;2.50;99.90;;;;;;4967394;28;20027;-91
2022/11/04 06:12:45;;;;;;;13.80;4.22;;;2.50;99.90;;;;;;4960541;28;20086;-90
2022/11/04 06:15:11;;;;;;;11.43;3.30;;;2.50;99.90;;;;;;4958591;28;20122;-90
2022/11/04 06:17:37;;;;;;;12.50;3.58;;;2.50;99.90;;;;;;4961403;28;20466;-90
2022/11/04 06:20:03;;;;;;;10.40;3.53;;;2.50;99.90;;;;;;4960654;28;20035;-91
2022/11/04 06:22:29;;;;;;;8.50;3.67;;;2.50;99.90;;;;;;4960570;28;20077;-90
2022/11/04 06:24:55;;;;;;;11.95;3.38;;;2.50;99.90;;;;;;4961043;28;20022;-91
2022/11/04 06:27:21;;;;;;;9.15;3.45;;;2.50;99.90;;;;;;4961073;28;20035;-90
2022/11/04 06:29:46;;;;;;;12.52;3.30;;;2.50;99.90;;;;;;4960534;28;20074;-90
2022/11/04 06:32:15;;;;;;;10.85;3.65;;;2.50;99.90;;;;;;4960554;28;20491;-91
2022/11/04 06:34:41;;;;;;;9.07;2.85;;;2.40;99.90;;;;;;4960368;28;20058;-90
2022/11/04 06:37:07;;;;;;;12.48;3.20;;;2.40;99.90;;;;;;4960238;28;20058;-89
2022/11/04 06:39:33;;;;;;;10.73;3.47;;;2.40;99.90;;;;;;4960159;28;20122;-89
2022/11/04 06:41:59;;;;;;;10.90;3.63;;;2.40;99.90;;;;;;4960478;28;20127;-90
2022/11/04 06:44:24;;;;;;;9.65;3.17;;;2.40;99.90;;;;;;4967622;28;20074;-90
2022/11/04 06:46:50;;;;;;;8.30;3.50;;;2.40;99.90;;;;;;4966217;28;20503;-90
2022/11/04 06:49:18;;;;;;;8.38;3.05;;;2.40;99.90;;;;;;4961455;28;20045;-90
2022/11/04 06:51:45;;;;;;;10.65;3.55;;;2.40;99.90;;;;;;4961784;28;20062;-90
2022/11/04 06:54:11;;;;;;;10.00;2.80;;;2.40;99.90;;;;;;4957527;28;20027;-90
2022/11/04 06:56:37;;;;;;;14.18;3.38;;;2.40;99.90;;;;;;4962222;28;20033;-90
2022/11/04 06:59:03;;;;;;;10.18;3.53;;;2.40;99.90;;;;;;4961304;28;20101;-90
2022/11/04 07:01:33;;;;;;;12.90;3.63;;;2.40;99.90;;;;;;4961228;28;20396;-90
2022/11/04 07:03:59;;;;;;;10.00;3.15;;;2.40;99.90;;;;;;4961020;28;20564;-90
2022/11/04 07:06:28;;;;;;;7.28;2.97;;;2.40;99.90;;;;;;4960941;28;20050;-92
2022/11/04 07:08:57;;;;;;;8.60;3.00;;;2.40;99.90;;;;;;4960274;28;20085;-90
2022/11/04 07:11:24;;;;;;;14.05;4.00;;;2.30;99.90;;;;;;4960073;28;20029;-91
2022/11/04 07:13:49;;;;;;;9.57;3.17;;;2.30;99.90;;;;;;4960572;28;20038;-91
2022/11/04 07:16:16;;;;;;;6.65;3.65;;;2.30;99.90;;;;;;4959785;28;20053;-89
2022/11/04 07:18:42;;;;;;;11.82;3.30;;;2.30;99.90;;;;;;4960128;28;20031;-89
2022/11/04 07:21:08;;;;;;;7.53;3.28;;;2.20;99.90;;;;;;4960030;28;20121;-90
2022/11/04 07:23:34;;;;;;;11.90;3.83;;;2.20;99.90;;;;;;4959796;28;20035;-92
2022/11/04 07:26:05;;;;;;;9.18;3.25;;;2.20;99.90;;;;;;4960059;28;20130;-89
2022/11/04 07:28:32;;;;;;;8.52;3.42;;;2.20;99.90;;;;;;4959697;28;20122;-92
2022/11/04 07:30:59;;;;;;;13.38;3.97;;;2.10;99.90;;;;;;4958818;28;20051;-91
2022/11/04 07:33:26;;;;;;;10.77;3.85;;;2.10;99.90;;;;;;4958343;28;20034;-90
2022/11/04 07:35:55;;;;;;;11.25;3.75;;;2.10;99.90;;;;;;4958482;28;20031;-90
2022/11/04 07:38:21;;;;;;;9.68;4.05;;;2.10;99.90;;;;;;4959496;28;20519;-89
2022/11/04 07:40:48;;;;;;;10.73;4.38;;;2.10;99.90;;;;;;4958669;28;20031;-89
2022/11/04 07:43:14;;;;;;;14.40;4.95;;;2.10;99.90;;;;;;4959074;28;20043;-89
2022/11/04 07:45:40;;;;;;;13.93;5.55;;;2.10;99.90;;;;;;4959075;28;20038;-90
2022/11/04 07:48:06;;;;;;;11.70;4.13;;;2.00;99.90;;;;;;4958857;28;20038;-90
2022/11/04 07:50:33;;;;;;;17.90;5.97;;;1.90;99.90;;;;;;4958995;28;20094;-90
2022/11/04 07:52:59;;;;;;;16.90;5.78;;;1.90;99.90;;;;;;4958944;28;20580;-90
2022/11/04 07:55:25;;;;;;;22.38;5.60;;;1.90;99.90;;;;;;4958417;28;20030;-90
2022/11/04 07:57:53;;;;;;;19.25;7.03;;;2.00;99.90;;;;;;4954814;28;20030;-90
2022/11/04 08:00:19;;;;;;;15.80;5.57;;;2.00;99.90;;;;;;4958937;28;20033;-90
2022/11/04 08:02:46;;;;;;;16.58;6.35;;;2.00;99.90;;;;;;4958104;28;20109;-90
2022/11/04 08:05:14;;;;;;;13.38;4.75;;;1.90;99.90;;;;;;4972671;28;20042;-91
2022/11/04 08:07:41;;;;;;;20.15;5.50;;;1.90;99.90;;;;;;4977373;28;20096;-90
2022/11/04 08:10:08;;;;;;;11.30;5.05;;;1.90;99.90;;;;;;4976327;28;20030;-90
2022/11/04 08:12:34;;;;;;;12.48;6.20;;;1.90;99.90;;;;;;4978010;28;20094;-90
2022/11/04 08:15:00;;;;;;;19.13;6.15;;;2.00;99.90;;;;;;4968746;28;20053;-91
2022/11/04 08:17:26;;;;;;;13.32;4.38;;;2.00;99.90;;;;;;4968189;28;20035;-90
2022/11/04 08:19:51;;;;;;;17.63;5.15;;;2.10;99.90;;;;;;4974130;28;20521;-91
2022/11/04 08:22:17;;;;;;;11.30;4.72;;;2.10;99.90;;;;;;4974532;28;20089;-90
2022/11/04 08:24:46;;;;;;;14.52;4.60;;;2.10;99.90;;;;;;4973919;28;20464;-90
2022/11/04 08:27:12;;;;;;;14.05;4.22;;;2.20;99.90;;;;;;4974905;28;20018;-90
2022/11/04 08:29:38;;;;;;;16.40;5.13;;;2.30;99.90;;;;;;4969945;28;20478;-91
2022/11/04 08:32:03;;;;;;;16.05;4.50;;;2.30;99.90;;;;;;4961029;28;20153;-90
2022/11/04 08:34:29;;;;;;;19.98;6.70;;;2.50;99.90;;;;;;4965278;28;20030;-90
2022/11/04 08:36:56;;;;;;;13.88;5.18;;;2.60;99.90;;;;;;4966013;28;20506;-90
2022/11/04 08:39:23;;;;;;;20.38;6.43;;;2.70;99.90;;;;;;4966674;28;20022;-91
2022/11/04 08:41:49;;;;;;;16.00;5.28;;;2.80;99.90;;;;;;4969790;28;20030;-90
2022/11/04 08:44:15;;;;;;;18.38;6.45;;;2.90;99.90;;;;;;4966804;28;20054;-90
2022/11/04 08:46:43;;;;;;;19.30;5.97;;;3.00;99.90;;;;;;4970545;28;20085;-90
2022/11/04 08:49:09;;;;;;;18.13;6.50;;;3.10;99.90;;;;;;4966497;28;20050;-91
2022/11/04 08:51:37;;;;;;;15.70;5.57;;;3.30;99.90;;;;;;4969115;28;20029;-91
2022/11/04 08:54:03;;;;;;;21.35;5.82;;;3.40;99.90;;;;;;4971507;28;20030;-90
2022/11/04 08:56:33;;;;;;;21.05;5.07;;;3.50;99.90;;;;;;4995777;28;20387;-90
2022/11/04 08:59:01;;;;;;;13.80;5.50;;;3.60;99.90;;;;;;4972338;28;20174;-90
2022/11/04 09:01:28;;;;;;;16.83;5.60;;;3.80;99.90;;;;;;4968084;28;20201;-90
2022/11/04 09:03:54;;;;;;;14.38;4.90;;;3.90;99.90;;;;;;4963658;28;20105;-91
2022/11/04 09:06:28;;;;;;;16.25;5.40;;;4.00;99.90;;;;;;4968819;28;20046;-90
2022/11/04 09:08:56;;;;;;;14.82;4.95;;;4.20;99.90;;;;;;4971203;28;20039;-90
2022/11/04 09:11:22;;;;;;;13.73;4.95;;;4.50;99.90;;;;;;4960981;28;20397;-91
2022/11/04 09:13:48;;;;;;;16.45;4.90;;;4.70;99.90;;;;;;4972443;28;20022;-91
2022/11/04 09:16:14;;;;;;;11.82;3.80;;;5.00;99.90;;;;;;4968502;28;20560;-91
2022/11/04 09:18:40;;;;;;;9.70;2.78;;;5.30;99.90;;;;;;5000435;28;20031;-91
2022/11/04 09:21:08;;;;;;;5.40;2.50;;;5.60;99.90;;;;;;4976946;28;20388;-90
2022/11/04 09:23:34;;;;;;;10.63;2.30;;;5.90;99.90;;;;;;4979092;28;20042;-91
2022/11/04 09:26:11;;;;;;;8.38;1.40;;;6.20;99.90;;;;;;5004517;28;20704;-91
2022/11/04 09:28:39;;;;;;;7.13;1.40;;;6.60;99.90;;;;;;5001813;28;20038;-91
2022/11/04 09:31:14;;;;;;;6.93;1.77;;;7.10;99.90;;;;;;4975599;28;20018;-92
2022/11/04 09:33:40;;;;;;;4.35;1.67;;;7.50;99.90;;;;;;4979326;28;20033;-90
2022/11/04 09:36:07;;;;;;;12.27;1.67;;;7.90;99.90;;;;;;5001596;28;20026;-91
2022/11/04 09:38:33;;;;;;;5.40;1.67;;;8.30;99.90;;;;;;4978734;28;20405;-90
2022/11/04 09:41:00;;;;;;;8.60;1.55;;;8.60;99.90;;;;;;4978983;28;20070;-91
2022/11/04 09:43:57;;;;;;;8.55;1.58;;;8.90;99.90;;;;;;4978805;28;20036;-91
2022/11/04 09:46:23;;;;;;;8.60;1.60;;;9.20;99.90;;;;;;4977843;28;20062;-92
2022/11/04 09:48:56;;;;;;;8.63;1.63;;;9.50;99.90;;;;;;4978482;28;20061;-92
2022/11/04 09:51:26;;;;;;;10.68;1.90;;;9.70;99.90;;;;;;4978809;28;20031;-93
2022/11/04 09:53:57;;;;;;;10.57;3.35;;;10.10;99.90;;;;;;4977224;28;20356;-93
2022/11/04 09:56:30;;;;;;;8.90;1.63;;;10.40;99.90;;;;;;4976424;28;20035;-93
2022/11/04 09:58:56;;;;;;;2.38;1.10;;;10.80;99.90;;;;;;4971394;28;20126;-93
2022/11/04 10:01:40;;;;;;;8.45;1.67;;;11.10;99.90;;;;;;4995983;28;20118;-92
2022/11/04 10:04:25;;;;;;;6.93;1.40;;;11.30;99.90;;;;;;4977784;28;20381;-93
2022/11/04 10:07:19;;;;;;;7.00;1.13;;;11.50;99.90;;;;;;4976389;28;20022;-92
2022/11/04 10:09:51;;;;;;;8.32;1.63;;;11.70;99.90;;;;;;4957945;28;20041;-92
2022/11/04 10:12:29;;;;;;;3.88;1.30;;;11.80;99.90;;;;;;4960044;28;20035;-93
2022/11/04 10:15:09;;;;;;;5.35;1.10;;;12.00;99.90;;;;;;4975398;28;20097;-92
2022/11/04 10:17:47;;;;;;;4.65;1.10;;;12.00;99.90;;;;;;4979286;28;20054;-92
2022/11/04 10:20:53;;;;;;;8.02;1.20;;;12.20;99.90;;;;;;4979801;28;20101;-92
2022/11/04 10:23:27;;;;;;;9.23;1.20;;;12.30;99.90;;;;;;4980455;28;20034;-92
2022/11/04 10:26:08;;;;;;;8.57;1.45;;;12.40;99.90;;;;;;4975328;28;20035;-92
2022/11/04 10:28:39;;;;;;;;;;;12.50;99.90;;;;;;4997958;28;20483;-93
2022/11/04 10:31:06;;;;;;;3.38;0.88;;;12.60;99.90;;;;;;4980762;28;19914;-92
2022/11/04 10:33:39;;;;;;;7.43;2.15;;;12.90;99.90;;;;;;4989526;28;20034;-92
2022/11/04 10:36:08;;;;;;;3.72;0.93;;;13.00;99.90;;;;;;4992262;28;20034;-92
2022/11/04 10:38:45;;;;;;;5.10;0.93;;;13.20;99.90;;;;;;5014084;28;20098;-94
2022/11/04 10:41:38;;;;;;;5.90;1.10;;;13.30;99.90;;;;;;4978931;28;20081;-94
2022/11/04 10:44:09;;;;;;;3.88;0.82;;;13.40;99.90;;;;;;4979714;28;20038;-95
2022/11/04 10:46:54;;;;;;;3.13;0.93;;;13.40;99.90;;;;;;4978713;28;20117;-93
2022/11/04 10:49:56;;;;;;;3.63;1.00;;;13.50;99.90;;;;;;4977362;28;20038;-93
2022/11/04 10:52:23;;;;;;;6.75;1.20;;;13.80;99.60;;;;;;4977548;28;20034;-93
2022/11/04 10:54:49;;;;;;;4.93;1.00;;;13.80;98.10;;;;;;4978790;28;20029;-93
2022/11/04 10:57:24;;;;;;;3.13;1.10;;;13.80;96.10;;;;;;5003768;28;20030;-94
2022/11/04 10:59:58;;;;;;;3.60;1.30;;;13.70;95.30;;;;;;4973605;28;20030;-93
2022/11/04 11:02:36;;;;;;;5.43;1.17;;;13.80;95.40;;;;;;5002573;28;20045;-94
2022/11/04 11:05:22;;;;;;;2.65;1.08;;;13.80;94.80;;;;;;5002112;28;20038;-94
2022/11/04 11:07:53;;;;;;;6.70;1.05;;;13.90;94.40;;;;;;4979448;28;20186;-94
2022/11/04 11:10:23;;;;;;;4.32;1.30;;;14.10;94.00;;;;;;4984264;28;20030;-94
2022/11/04 11:12:56;;;;;;;4.15;1.02;;;14.20;93.50;;;;;;5023060;28;20018;-93
2022/11/04 11:15:34;;;;;;;3.38;1.58;;;14.30;92.80;;;;;;5024822;28;20050;-92
2022/11/04 11:18:13;;;;;;;3.70;1.20;;;14.20;91.80;;;;;;4982617;28;20047;-95
2022/11/04 11:20:41;;;;;;;6.63;1.58;;;14.30;91.30;;;;;;4959656;28;20019;-95
2022/11/04 11:23:41;;;;;;;5.60;1.02;;;14.40;91.30;;;;;;4980043;28;20042;-93
2022/11/04 11:26:20;;;;;;;;;;;14.70;91.10;;;;;;4979786;28;20034;-93
2022/11/04 11:28:55;;;;;;;7.60;2.13;;;15.00;90.50;;;;;;4967537;28;19910;-93
2022/11/04 11:31:23;;;;;;;5.75;1.45;;;15.30;90.40;;;;;;4979359;28;20030;-94
2022/11/04 11:34:01;;;;;;;7.68;1.45;;;15.60;90.00;;;;;;4960607;28;20031;-93
2022/11/04 11:36:31;;;;;;;5.28;1.40;;;15.80;87.80;;;;;;4973573;28;20022;-93
2022/11/04 11:39:15;;;;;;;5.22;1.38;;;15.80;87.30;;;;;;4971818;28;20049;-95
2022/11/04 11:41:50;;;;;;;4.43;1.58;;;15.90;86.40;;;;;;4971691;28;20042;-91
2022/11/04 11:44:26;;;;;;;6.00;1.88;;;15.90;85.40;;;;;;4978656;28;20034;-92
2022/11/04 11:46:55;;;;;;;6.05;1.27;;;15.90;84.70;;;;;;4973729;28;20027;-92
2022/11/04 11:49:30;;;;;;;5.57;1.33;;;16.00;83.30;;;;;;4960167;28;20031;-95
2022/11/04 11:52:22;;;;;;;6.05;1.95;;;16.00;82.80;;;;;;4958430;28;20121;-93
2022/11/04 11:54:51;;;;;;;4.93;1.42;;;16.10;82.30;;;;;;4960834;28;20030;-92
2022/11/04 11:57:30;;;;;;;5.45;1.20;;;16.20;81.70;;;;;;4978724;28;20027;-91
2022/11/04 12:00:08;;;;;;;6.60;1.85;;;16.40;81.20;;;;;;4961217;28;20027;-93
2022/11/04 12:03:13;;;;;;;4.53;1.40;;;16.60;79.90;;;;;;4960292;28;20400;-93
2022/11/04 12:05:44;;;;;;;4.65;1.45;;;16.80;78.70;;;;;;4959576;28;20047;-94
2022/11/04 12:08:28;;;;;;;;;;;16.90;78.00;;;;;;4959843;28;20038;-93
2022/11/04 12:11:09;;;;;;;3.17;1.23;;;17.00;77.30;;;;;;4959232;28;19906;-93
2022/11/04 12:13:42;;;;;;;4.60;1.40;;;17.10;76.70;;;;;;4959451;28;20050;-93
2022/11/04 12:16:08;;;;;;;5.53;1.27;;;17.30;76.40;;;;;;4958739;28;20023;-93
2022/11/04 12:18:51;;;;;;;3.47;1.30;;;17.40;76.20;;;;;;4961616;28;20492;-94
2022/11/04 12:21:32;;;;;;;3.97;1.15;;;17.50;75.10;;;;;;4974692;28;20049;-93
2022/11/04 12:24:00;;;;;;;5.47;1.45;;;17.30;74.70;;;;;;4970196;28;20121;-94
2022/11/04 12:26:36;;;;;;;5.10;1.40;;;17.20;74.80;;;;;;4982694;28;20034;-92
2022/11/04 12:29:28;;;;;;;4.30;1.52;;;17.10;74.50;;;;;;5010670;28;20480;-92
2022/11/04 12:32:00;;;;;;;4.82;1.38;;;17.10;74.80;;;;;;4998848;28;20135;-92
2022/11/04 12:34:44;;;;;;;5.78;1.60;;;17.10;74.40;;;;;;4994917;28;20042;-93
2022/11/04 12:37:16;;;;;;;3.80;1.88;;;17.00;74.60;;;;;;4997032;28;20058;-93
2022/11/04 12:39:55;;;;;;;4.75;1.40;;;16.80;74.70;;;;;;4999257;28;20030;-93
2022/11/04 12:42:30;;;;;;;3.45;1.60;;;16.70;75.20;;;;;;4996147;28;20162;-94
2022/11/04 12:45:11;;;;;;;7.13;2.13;;;16.70;75.90;;;;;;4981332;28;20085;-92
2022/11/04 12:47:37;;;;;;;;;;;16.80;76.00;;;;;;4981344;28;20554;-92
2022/11/04 12:50:06;;;;;;;6.53;2.10;;;16.90;76.10;;;;;;4995453;28;20387;-95
2022/11/04 12:52:49;;;;;;;5.45;2.03;;;17.00;76.00;;;;;;4979133;28;20492;-93
2022/11/04 12:55:39;;;;;;;9.55;1.83;;;17.00;75.30;;;;;;4979358;28;20062;-91
2022/11/04 12:58:24;;;;;;;5.45;1.90;;;16.90;75.30;;;;;;4982698;28;20066;-92
2022/11/04 13:01:03;;;;;;;6.53;2.67;;;16.70;75.00;;;;;;4982115;28;20085;-92
2022/11/04 13:03:42;;;;;;;5.80;1.63;;;16.40;75.10;;;;;;4981336;28;20099;-93
2022/11/04 13:06:15;;;;;;;3.63;1.60;;;16.30;75.90;;;;;;4980630;28;20039;-94
2022/11/04 13:09:03;;;;;;;5.15;1.73;;;16.20;76.10;;;;;;4970038;28;20031;-93
2022/11/04 13:11:38;;;;;;;4.15;1.50;;;16.40;76.50;;;;;;4983815;28;20076;-94
2022/11/04 13:14:18;;;;;;;3.47;1.48;;;16.50;76.10;;;;;;4984974;28;20037;-94
2022/11/04 13:16:47;;;;;;;4.80;1.33;;;16.50;76.00;;;;;;4983694;28;20022;-94
2022/11/04 13:19:22;;;;;;;6.72;1.40;;;16.60;75.60;;;;;;4984650;28;20026;-93
2022/11/04 13:21:48;;;;;;;4.18;1.73;;;16.90;75.60;;;;;;4987778;28;20089;-94
2022/11/04 13:24:29;;;;;;;3.35;1.05;;;17.10;74.90;;;;;;4985291;28;20038;-94
2022/11/04 13:26:57;;;;;;;;;;;17.40;74.60;;;;;;4983703;28;20490;-94
2022/11/04 13:29:24;;;;;;;4.53;1.23;;;17.40;73.60;;;;;;4967339;28;19914;-94
2022/11/04 13:32:15;;;;;;;1.58;1.10;;;17.40;73.80;;;;;;4982639;28;20037;-94
2022/11/04 13:34:58;;;;;;;3.60;1.15;;;17.70;73.30;;;;;;4984221;28;20033;-93
2022/11/04 13:37:32;;;;;;;2.80;1.45;;;17.90;72.90;;;;;;4982798;28;20391;-95
2022/11/04 13:40:21;;;;;;;5.30;1.15;;;18.10;72.40;;;;;;4966236;28;20030;-94
2022/11/04 13:43:49;;;;;;;2.85;1.13;;;18.00;70.90;;;;;;4971337;28;20026;-93
2022/11/04 13:45:55;;;;;;;2.07;1.07;;;17.90;71.30;;;;;;4976955;28;20057;-93